Time;durP1;ratioP1;P1;durP2;ratioP2;P2;SDS_P1;SDS_P2;PMS_P1;PMS_P2;Temp;Humidity;BMP_temperature;BMP_pressure;BME280_temperature;BME280_humidity;BME280_pressure;Samples;Min_cycle;Max_cycle;Signal;HPM_P1;HPM_P2
2022/06/05 00:00:26;;;;;;;32.13;24.00;;;;;;;;;;725756;193;915774;-73
2022/06/05 00:03:09;;;;;;;33.67;25.13;;;;;;;;;;727750;190;914751;-72
2022/06/05 00:05:36;;;;;;;33.47;27.27;;;;;;;;;;729585;191;918537;-72
2022/06/05 00:08:02;;;;;;;34.33;28.40;;;;;;;;;;725006;189;919521;-72
2022/06/05 00:10:29;;;;;;;33.93;26.87;;;;;;;;;;729877;187;918703;-73
2022/06/05 00:13:00;;;;;;;30.90;26.43;;;;;;;;;;729794;190;918817;-74
2022/06/05 00:15:27;;;;;;;36.23;28.47;;;;;;;;;;734829;189;918565;-73
2022/06/05 00:17:52;;;;;;;36.45;26.77;;;;;;;;;;729620;191;918434;-73
2022/06/05 00:20:18;;;;;;;40.63;26.92;;;;;;;;;;727237;189;918708;-70
2022/06/05 00:22:46;;;;;;;40.17;29.70;;;;;;;;;;725580;192;917341;-72
2022/06/05 00:25:10;;;;;;;33.97;28.00;;;;;;;;;;723579;189;1019352;-72
2022/06/05 00:27:51;;;;;;;37.70;28.80;;;;;;;;;;728494;189;921852;-72
2022/06/05 00:30:17;;;;;;;32.90;27.37;;;;;;;;;;727801;190;918845;-73
2022/06/05 00:32:44;;;;;;;37.40;29.70;;;;;;;;;;733450;191;922583;-71
2022/06/05 00:35:10;;;;;;;37.47;28.27;;;;;;;;;;730168;191;919477;-72
2022/06/05 00:37:37;;;;;;;37.33;29.90;;;;;;;;;;727828;191;919121;-71
2022/06/05 00:40:09;;;;;;;40.63;29.80;;;;;;;;;;741072;187;919692;-71
2022/06/05 00:42:35;;;;;;;37.90;29.97;;;;;;;;;;738671;190;918019;-73
2022/06/05 00:45:01;;;;;;;40.90;29.07;;;;;;;;;;720873;191;919075;-73
2022/06/05 00:47:27;;;;;;;38.70;30.57;;;;;;;;;;728309;189;918969;-71
2022/06/05 00:49:54;;;;;;;36.20;29.90;;;;;;;;;;731570;189;918948;-73
2022/06/05 00:52:20;;;;;;;35.30;29.60;;;;;;;;;;723820;189;919199;-72
2022/06/05 00:54:46;;;;;;;35.37;29.97;;;;;;;;;;732643;190;919378;-72
2022/06/05 00:57:12;;;;;;;39.87;30.93;;;;;;;;;;735533;189;920093;-72
2022/06/05 00:59:38;;;;;;;35.43;29.03;;;;;;;;;;729277;188;918949;-73
2022/06/05 01:02:04;;;;;;;42.50;30.70;;;;;;;;;;728434;191;919498;-73
2022/06/05 01:04:31;;;;;;;48.23;32.33;;;;;;;;;;726524;189;919159;-71
2022/06/05 01:06:55;;;;;;;40.83;31.10;;;;;;;;;;730856;190;919147;-71
2022/06/05 01:09:21;;;;;;;42.37;32.63;;;;;;;;;;727060;190;920798;-71
2022/06/05 01:11:58;;;;;;;38.97;30.57;;;;;;;;;;731879;190;919615;-70
2022/06/05 01:14:25;;;;;;;39.83;31.13;;;;;;;;;;728673;189;918155;-70
2022/06/05 01:17:00;;;;;;;38.37;29.70;;;;;;;;;;726109;190;920503;-71
2022/06/05 01:19:26;;;;;;;41.37;31.80;;;;;;;;;;721508;189;921291;-72
2022/06/05 01:22:13;;;;;;;40.00;31.77;;;;;;;;;;731514;191;921491;-71
2022/06/05 01:24:55;;;;;;;41.10;32.17;;;;;;;;;;722783;191;923817;-72
2022/06/05 01:27:20;;;;;;;41.60;31.63;;;;;;;;;;724515;191;918560;-71
2022/06/05 01:29:47;;;;;;;37.57;31.20;;;;;;;;;;727118;191;1018432;-70
2022/06/05 01:32:13;;;;;;;38.10;29.13;;;;;;;;;;731653;191;918632;-71
2022/06/05 01:34:44;;;;;;;45.70;31.13;;;;;;;;;;721585;191;919278;-71
2022/06/05 01:37:09;;;;;;;39.20;30.63;;;;;;;;;;725256;189;913892;-71
2022/06/05 01:39:36;;;;;;;45.73;32.43;;;;;;;;;;728764;191;914027;-71
2022/06/05 01:42:03;;;;;;;46.33;32.70;;;;;;;;;;725208;189;914200;-71
2022/06/05 01:44:30;;;;;;;38.80;29.80;;;;;;;;;;728420;189;915032;-71
2022/06/05 01:46:55;;;;;;;43.80;31.43;;;;;;;;;;724754;191;914722;-71
2022/06/05 01:49:21;;;;;;;43.97;32.25;;;;;;;;;;730698;189;914478;-71
2022/06/05 01:51:47;;;;;;;52.07;33.73;;;;;;;;;;729041;188;914099;-69
2022/06/05 01:54:13;;;;;;;39.40;31.30;;;;;;;;;;724892;188;913420;-70
2022/06/05 01:56:40;;;;;;;41.27;32.50;;;;;;;;;;735763;190;911688;-71
2022/06/05 01:59:06;;;;;;;43.63;33.53;;;;;;;;;;721790;189;915400;-70
2022/06/05 02:01:31;;;;;;;44.87;34.83;;;;;;;;;;723870;191;918930;-71
2022/06/05 02:03:57;;;;;;;48.50;34.20;;;;;;;;;;732846;190;918855;-71
2022/06/05 02:06:26;;;;;;;43.57;33.07;;;;;;;;;;728799;190;1020706;-72
2022/06/05 02:08:52;;;;;;;44.67;35.40;;;;;;;;;;725752;190;919683;-70
2022/06/05 02:11:20;;;;;;;46.20;35.40;;;;;;;;;;727274;191;917561;-71
2022/06/05 02:13:46;;;;;;;43.13;33.77;;;;;;;;;;735790;190;1021215;-70
2022/06/05 02:16:12;;;;;;;45.90;32.50;;;;;;;;;;728406;191;919621;-71
2022/06/05 02:18:39;;;;;;;47.33;33.87;;;;;;;;;;725616;190;919098;-71
2022/06/05 02:21:04;;;;;;;38.57;32.90;;;;;;;;;;737733;190;920877;-71
2022/06/05 02:23:32;;;;;;;41.00;33.03;;;;;;;;;;731003;190;934587;-71
2022/06/05 02:25:57;;;;;;;47.10;33.83;;;;;;;;;;728244;189;919742;-71
2022/06/05 02:28:23;;;;;;;44.50;36.47;;;;;;;;;;733167;191;918766;-71
2022/06/05 02:30:49;;;;;;;46.77;35.40;;;;;;;;;;735544;191;918264;-71
2022/06/05 02:33:15;;;;;;;43.70;34.67;;;;;;;;;;726669;191;919840;-70
2022/06/05 02:35:46;;;;;;;47.23;36.20;;;;;;;;;;735304;191;917536;-70
2022/06/05 02:38:20;;;;;;;57.53;36.57;;;;;;;;;;735825;191;918672;-71
2022/06/05 02:40:51;;;;;;;44.27;34.87;;;;;;;;;;731435;191;940743;-69
2022/06/05 02:43:31;;;;;;;48.70;37.40;;;;;;;;;;722837;191;918617;-71
2022/06/05 02:45:58;;;;;;;45.00;34.03;;;;;;;;;;726684;190;918846;-69
2022/06/05 02:48:24;;;;;;;46.23;36.00;;;;;;;;;;724940;191;919210;-70
2022/06/05 02:50:53;;;;;;;41.17;33.13;;;;;;;;;;733565;190;919714;-70
2022/06/05 02:53:18;;;;;;;43.37;33.27;;;;;;;;;;736862;191;915269;-70
2022/06/05 02:55:44;;;;;;;49.67;34.07;;;;;;;;;;728063;191;918847;-69
2022/06/05 02:58:10;;;;;;;46.83;35.73;;;;;;;;;;733776;191;918100;-69
2022/06/05 03:00:36;;;;;;;48.60;35.47;;;;;;;;;;724653;191;919639;-71
2022/06/05 03:05:34;;;;;;;43.20;33.70;;;;;;;;;;734435;187;918937;-69
2022/06/05 03:08:00;;;;;;;44.03;35.07;;;;;;;;;;722998;190;1116900;-68
2022/06/05 03:10:26;;;;;;;48.50;36.03;;;;;;;;;;735964;188;917008;-69
2022/06/05 03:12:52;;;;;;;47.47;36.23;;;;;;;;;;721050;190;1223646;-68
2022/06/05 03:15:18;;;;;;;47.60;36.00;;;;;;;;;;730340;190;989315;-68
2022/06/05 03:17:43;;;;;;;45.77;36.60;;;;;;;;;;727201;190;917053;-68
2022/06/05 03:20:10;;;;;;;52.73;36.97;;;;;;;;;;733016;190;1224248;-68
2022/06/05 03:22:36;;;;;;;49.87;37.47;;;;;;;;;;724898;190;918488;-67
2022/06/05 03:25:02;;;;;;;58.07;43.37;;;;;;;;;;737333;187;919475;-66
2022/06/05 03:27:30;;;;;;;59.87;43.40;;;;;;;;;;729571;190;917085;-67
2022/06/05 03:29:53;;;;;;;55.37;42.97;;;;;;;;;;729967;189;915226;-68
2022/06/05 03:32:20;;;;;;;55.60;41.28;;;;;;;;;;731388;189;915235;-66
2022/06/05 03:34:46;;;;;;;64.13;44.00;;;;;;;;;;732953;191;915080;-68
2022/06/05 03:37:12;;;;;;;60.33;43.67;;;;;;;;;;725200;191;918814;-66
2022/06/05 03:39:38;;;;;;;65.45;46.28;;;;;;;;;;732327;187;918852;-67
2022/06/05 03:42:04;;;;;;;69.80;46.93;;;;;;;;;;728244;191;1018792;-67
2022/06/05 03:44:29;;;;;;;58.63;44.30;;;;;;;;;;730355;187;919159;-67
2022/06/05 03:46:55;;;;;;;67.70;48.33;;;;;;;;;;725758;191;919026;-69
2022/06/05 03:49:21;;;;;;;63.50;46.27;;;;;;;;;;733496;189;1021351;-67
2022/06/05 03:51:47;;;;;;;64.97;44.60;;;;;;;;;;725524;191;920263;-68
2022/06/05 03:54:13;;;;;;;60.60;47.13;;;;;;;;;;731425;187;918623;-67
2022/06/05 03:56:39;;;;;;;69.47;46.87;;;;;;;;;;732786;191;921501;-67
2022/06/05 03:59:04;;;;;;;62.85;47.53;;;;;;;;;;730930;191;919751;-67
2022/06/05 04:01:30;;;;;;;61.27;46.13;;;;;;;;;;727359;189;921301;-68
2022/06/05 04:03:56;;;;;;;70.97;47.80;;;;;;;;;;728766;191;918537;-67
2022/06/05 04:06:22;;;;;;;70.67;50.70;;;;;;;;;;735840;191;1044193;-67
2022/06/05 04:08:48;;;;;;;77.83;50.20;;;;;;;;;;727626;190;918853;-68
2022/06/05 04:11:14;;;;;;;67.60;48.50;;;;;;;;;;729776;189;920144;-68
2022/06/05 04:13:40;;;;;;;70.00;47.43;;;;;;;;;;734639;188;918587;-68
2022/06/05 04:16:11;;;;;;;61.63;47.73;;;;;;;;;;725832;189;919544;-68
2022/06/05 04:18:37;;;;;;;80.17;49.07;;;;;;;;;;726603;190;919378;-68
2022/06/05 04:21:05;;;;;;;71.50;50.10;;;;;;;;;;731390;188;919142;-68
2022/06/05 04:23:31;;;;;;;75.63;49.10;;;;;;;;;;736066;190;919123;-68
2022/06/05 04:25:57;;;;;;;84.53;51.77;;;;;;;;;;733245;189;904212;-69
2022/06/05 04:28:22;;;;;;;74.87;49.87;;;;;;;;;;729219;189;919524;-69
2022/06/05 04:30:48;;;;;;;79.70;51.40;;;;;;;;;;733453;189;916349;-69
2022/06/05 04:33:14;;;;;;;71.30;47.40;;;;;;;;;;728646;190;1021436;-69
2022/06/05 04:35:40;;;;;;;64.20;46.80;;;;;;;;;;726186;189;918934;-70
2022/06/05 04:38:06;;;;;;;66.70;45.83;;;;;;;;;;734406;190;918210;-69
2022/06/05 04:40:32;;;;;;;69.40;44.80;;;;;;;;;;727688;189;921112;-68
2022/06/05 04:42:57;;;;;;;65.07;46.55;;;;;;;;;;726833;190;919673;-69
2022/06/05 04:45:23;;;;;;;68.10;48.83;;;;;;;;;;730273;189;975551;-69
2022/06/05 04:47:49;;;;;;;69.93;48.30;;;;;;;;;;738089;187;918484;-71
2022/06/05 04:50:15;;;;;;;72.97;48.20;;;;;;;;;;730046;188;918971;-70
2022/06/05 04:52:41;;;;;;;73.60;49.20;;;;;;;;;;728196;189;920576;-70
2022/06/05 04:55:07;;;;;;;78.80;49.77;;;;;;;;;;733902;189;917320;-69
2022/06/05 04:57:33;;;;;;;74.50;49.00;;;;;;;;;;726710;191;913233;-70
2022/06/05 04:59:59;;;;;;;71.30;46.23;;;;;;;;;;724517;189;919858;-69
2022/06/05 05:02:25;;;;;;;73.63;47.00;;;;;;;;;;733365;189;921485;-70
2022/06/05 05:04:50;;;;;;;76.17;47.97;;;;;;;;;;727146;190;994295;-70
2022/06/05 05:07:16;;;;;;;71.23;47.70;;;;;;;;;;724614;191;919047;-70
2022/06/05 05:09:42;;;;;;;74.80;49.33;;;;;;;;;;726756;189;933024;-69
2022/06/05 05:12:11;;;;;;;70.90;46.10;;;;;;;;;;732078;189;918092;-70
2022/06/05 05:14:37;;;;;;;65.20;45.57;;;;;;;;;;728411;188;931250;-70
2022/06/05 05:17:02;;;;;;;60.30;44.00;;;;;;;;;;726246;191;920402;-71
2022/06/05 05:19:28;;;;;;;60.63;44.23;;;;;;;;;;729426;191;917803;-71
2022/06/05 05:21:54;;;;;;;67.53;42.50;;;;;;;;;;725110;189;919637;-71
2022/06/05 05:24:20;;;;;;;61.80;43.37;;;;;;;;;;727890;191;919039;-69
2022/06/05 05:26:46;;;;;;;57.00;39.60;;;;;;;;;;732872;188;919004;-72
2022/06/05 05:29:12;;;;;;;61.50;41.23;;;;;;;;;;730503;190;919186;-71
2022/06/05 05:31:37;;;;;;;54.20;40.60;;;;;;;;;;725090;190;921263;-72
2022/06/05 05:34:03;;;;;;;51.90;39.50;;;;;;;;;;725218;190;916809;-71
2022/06/05 05:36:29;;;;;;;53.00;37.50;;;;;;;;;;741588;189;918741;-71
2022/06/05 05:43:58;;;;;;;39.50;32.03;;;;;;;;;;734456;190;623266;-72
2022/06/05 05:46:24;;;;;;;37.43;30.33;;;;;;;;;;741323;186;620772;-73
2022/06/05 05:48:50;;;;;;;35.13;29.20;;;;;;;;;;734403;190;622714;-73
2022/06/05 05:51:16;;;;;;;35.03;29.57;;;;;;;;;;727163;190;904712;-72
2022/06/05 05:53:42;;;;;;;38.00;29.90;;;;;;;;;;732145;189;623245;-74
2022/06/05 05:56:07;;;;;;;35.63;28.33;;;;;;;;;;730117;190;653412;-73
2022/06/05 05:58:33;;;;;;;34.57;28.60;;;;;;;;;;733920;190;647186;-73
2022/06/05 06:01:00;;;;;;;37.03;27.90;;;;;;;;;;738697;190;638653;-73
2022/06/05 06:03:26;;;;;;;30.93;26.60;;;;;;;;;;734892;191;626395;-76
2022/06/05 06:05:52;;;;;;;31.90;28.10;;;;;;;;;;731226;189;651665;-73
2022/06/05 06:08:17;;;;;;;32.73;26.50;;;;;;;;;;728003;190;621134;-74
2022/06/05 06:10:43;;;;;;;32.23;27.53;;;;;;;;;;735284;191;637360;-73
2022/06/05 06:13:09;;;;;;;33.30;29.40;;;;;;;;;;732996;189;628876;-74
2022/06/05 06:15:35;;;;;;;33.40;29.80;;;;;;;;;;725269;189;638045;-72
2022/06/05 06:18:01;;;;;;;35.67;28.30;;;;;;;;;;738074;191;629063;-74
2022/06/05 06:20:27;;;;;;;36.10;31.30;;;;;;;;;;730179;191;616373;-74
2022/06/05 06:22:52;;;;;;;42.23;31.43;;;;;;;;;;724695;191;639415;-74
2022/06/05 06:25:18;;;;;;;38.80;32.50;;;;;;;;;;728669;189;627911;-75
2022/06/05 06:27:44;;;;;;;41.53;35.67;;;;;;;;;;735632;189;629756;-74
2022/06/05 06:30:10;;;;;;;41.37;32.10;;;;;;;;;;729976;192;627482;-73
2022/06/05 06:32:36;;;;;;;39.87;35.53;;;;;;;;;;734301;189;624941;-73
2022/06/05 06:35:02;;;;;;;41.83;35.33;;;;;;;;;;734763;189;623698;-75
2022/06/05 06:37:28;;;;;;;44.80;34.90;;;;;;;;;;731109;189;674881;-72
2022/06/05 06:39:54;;;;;;;48.60;35.17;;;;;;;;;;733925;187;629280;-74
2022/06/05 06:42:20;;;;;;;40.90;35.03;;;;;;;;;;738669;190;617413;-75
2022/06/05 06:44:46;;;;;;;43.00;35.63;;;;;;;;;;732323;189;637944;-73
2022/06/05 06:47:12;;;;;;;43.27;36.80;;;;;;;;;;728768;190;667984;-72
2022/06/05 06:49:38;;;;;;;47.23;35.60;;;;;;;;;;736782;189;616817;-73
2022/06/05 06:52:04;;;;;;;42.60;37.00;;;;;;;;;;731979;190;628430;-74
2022/06/05 06:54:30;;;;;;;48.63;42.53;;;;;;;;;;733174;190;637330;-72
2022/06/05 06:56:55;;;;;;;46.00;36.57;;;;;;;;;;733183;190;627171;-73
2022/06/05 06:59:23;;;;;;;48.40;38.37;;;;;;;;;;731645;190;632103;-76
2022/06/05 07:01:47;;;;;;;42.63;36.50;;;;;;;;;;733086;190;620816;-74
2022/06/05 07:04:15;;;;;;;42.93;37.97;;;;;;;;;;735328;189;625112;-71
2022/06/05 07:06:39;;;;;;;44.23;36.70;;;;;;;;;;735320;189;629093;-71
2022/06/05 07:09:05;;;;;;;42.00;34.00;;;;;;;;;;730249;190;629461;-74
2022/06/05 07:11:31;;;;;;;38.97;33.30;;;;;;;;;;732209;189;626429;-71
2022/06/05 07:13:56;;;;;;;34.20;30.00;;;;;;;;;;733736;190;662099;-73
2022/06/05 07:16:23;;;;;;;44.43;35.37;;;;;;;;;;733762;189;626937;-75
2022/06/05 07:18:49;;;;;;;41.97;31.80;;;;;;;;;;731587;191;620007;-74
2022/06/05 07:21:14;;;;;;;37.90;33.80;;;;;;;;;;736198;189;615578;-74
2022/06/05 07:23:40;;;;;;;43.50;36.10;;;;;;;;;;729078;190;660420;-73
2022/06/05 07:26:06;;;;;;;44.33;33.80;;;;;;;;;;733219;187;624610;-74
2022/06/05 07:28:32;;;;;;;39.70;32.50;;;;;;;;;;730543;191;625883;-73
2022/06/05 07:31:00;;;;;;;36.73;31.60;;;;;;;;;;736392;191;918841;-71
2022/06/05 07:33:24;;;;;;;36.20;32.37;;;;;;;;;;729010;190;617508;-75
2022/06/05 07:35:50;;;;;;;39.23;29.80;;;;;;;;;;730614;189;614705;-75
2022/06/05 07:38:15;;;;;;;41.03;30.37;;;;;;;;;;738015;189;634273;-73
2022/06/05 07:40:41;;;;;;;40.40;34.87;;;;;;;;;;728810;189;627896;-74
2022/06/05 07:43:09;;;;;;;35.03;31.20;;;;;;;;;;730824;189;630351;-76
2022/06/05 07:45:33;;;;;;;35.20;31.30;;;;;;;;;;730959;187;918856;-75
2022/06/05 07:47:59;;;;;;;38.77;32.03;;;;;;;;;;730600;189;627189;-75
2022/06/05 07:50:25;;;;;;;35.90;30.73;;;;;;;;;;735724;190;612882;-76
2022/06/05 07:55:22;;;;;;;35.57;31.07;;;;;;;;;;732638;189;619084;-76
2022/06/05 07:57:48;;;;;;;36.57;29.93;;;;;;;;;;730510;189;633454;-74
2022/06/05 08:00:14;;;;;;;31.83;28.43;;;;;;;;;;732956;190;632928;-73
2022/06/05 08:02:40;;;;;;;35.37;30.63;;;;;;;;;;734686;189;619132;-74
2022/06/05 08:05:06;;;;;;;33.03;29.33;;;;;;;;;;727969;189;630192;-74
2022/06/05 08:07:32;;;;;;;40.10;28.80;;;;;;;;;;730858;190;695540;-74
2022/06/05 08:09:58;;;;;;;35.00;28.70;;;;;;;;;;732099;187;618563;-77
2022/06/05 08:12:24;;;;;;;43.87;29.27;;;;;;;;;;730928;190;626021;-75
2022/06/05 08:14:49;;;;;;;31.90;27.87;;;;;;;;;;732477;187;636678;-75
2022/06/05 08:17:17;;;;;;;45.03;29.43;;;;;;;;;;730983;190;636499;-76
2022/06/05 08:19:41;;;;;;;36.20;28.77;;;;;;;;;;735281;189;631787;-76
2022/06/05 08:22:07;;;;;;;42.03;31.00;;;;;;;;;;730237;189;634736;-76
2022/06/05 08:24:33;;;;;;;44.50;31.50;;;;;;;;;;731243;189;684985;-74
2022/06/05 08:26:59;;;;;;;37.63;31.00;;;;;;;;;;735555;191;616953;-76
2022/06/05 08:29:25;;;;;;;42.73;31.80;;;;;;;;;;734879;189;633372;-76
2022/06/05 08:31:51;;;;;;;35.85;29.00;;;;;;;;;;733942;189;729010;-76
2022/06/05 08:34:17;;;;;;;33.20;27.70;;;;;;;;;;733649;189;919846;-76
2022/06/05 08:36:43;;;;;;;38.80;31.70;;;;;;;;;;737175;190;624593;-76
2022/06/05 08:41:42;;;;;;;37.20;28.03;;;;;;;;;;732012;191;619423;-74
2022/06/05 08:44:13;;;;;;;39.93;27.40;;;;;;;;;;733081;191;617902;-77
2022/06/05 08:46:39;;;;;;;35.60;28.37;;;;;;;;;;732432;191;641146;-74
2022/06/05 08:49:05;;;;;;;37.33;29.07;;;;;;;;;;729508;190;646378;-76
2022/06/05 08:51:36;;;;;;;35.37;29.80;;;;;;;;;;731555;191;642135;-76
2022/06/05 08:54:04;;;;;;;39.13;28.37;;;;;;;;;;732132;189;915480;-76
2022/06/05 08:56:31;;;;;;;35.13;29.67;;;;;;;;;;731063;191;631401;-73
2022/06/05 08:58:56;;;;;;;35.87;29.20;;;;;;;;;;729603;191;915957;-76
2022/06/05 09:01:25;;;;;;;51.50;32.03;;;;;;;;;;728019;189;915098;-77
2022/06/05 09:03:51;;;;;;;35.10;28.20;;;;;;;;;;738401;190;637775;-76
2022/06/05 09:06:18;;;;;;;37.10;28.00;;;;;;;;;;737181;187;639270;-73
2022/06/05 09:08:44;;;;;;;30.43;24.10;;;;;;;;;;733249;189;709682;-76
2022/06/05 09:11:10;;;;;;;31.63;25.70;;;;;;;;;;733682;190;623436;-76
2022/06/05 09:13:52;;;;;;;28.20;23.57;;;;;;;;;;732753;190;627085;-74
2022/06/05 09:16:22;;;;;;;30.13;24.13;;;;;;;;;;734171;189;635800;-75
2022/06/05 09:18:48;;;;;;;32.00;26.00;;;;;;;;;;732330;190;636362;-76
2022/06/05 09:21:20;;;;;;;28.67;23.25;;;;;;;;;;727086;189;919921;-75
2022/06/05 09:23:49;;;;;;;23.33;20.83;;;;;;;;;;733770;190;918858;-78
2022/06/05 09:26:26;;;;;;;21.97;19.63;;;;;;;;;;731219;187;920431;-78
2022/06/05 09:29:10;;;;;;;24.33;21.50;;;;;;;;;;728848;189;917371;-75
2022/06/05 09:31:39;;;;;;;22.10;18.33;;;;;;;;;;736939;189;918721;-76
2022/06/05 09:34:05;;;;;;;24.73;20.20;;;;;;;;;;727855;190;918697;-76
2022/06/05 09:36:31;;;;;;;31.90;20.73;;;;;;;;;;730311;190;647300;-74
2022/06/05 09:38:58;;;;;;;22.77;19.53;;;;;;;;;;733021;191;625317;-78
2022/06/05 09:41:38;;;;;;;26.30;19.57;;;;;;;;;;729784;190;634055;-79
2022/06/05 09:44:07;;;;;;;22.10;19.53;;;;;;;;;;735466;190;627152;-77
2022/06/05 09:46:42;;;;;;;21.57;19.13;;;;;;;;;;731642;191;649877;-77
2022/06/05 09:49:23;;;;;;;18.20;15.60;;;;;;;;;;727828;191;919555;-73
2022/06/05 09:51:49;;;;;;;20.67;17.00;;;;;;;;;;734163;191;918644;-79
2022/06/05 09:54:18;;;;;;;19.00;17.00;;;;;;;;;;726677;193;811537;-79
2022/06/05 09:59:21;;;;;;;18.87;16.27;;;;;;;;;;731759;191;911120;-77
2022/06/05 10:01:48;;;;;;;18.07;16.07;;;;;;;;;;726259;191;635981;-76
2022/06/05 10:04:14;;;;;;;18.90;15.63;;;;;;;;;;733888;187;920190;-76
2022/06/05 10:06:39;;;;;;;18.40;14.50;;;;;;;;;;729810;189;910874;-77
2022/06/05 10:09:14;;;;;;;17.73;15.18;;;;;;;;;;731138;191;910498;-77
2022/06/05 10:11:41;;;;;;;19.33;17.27;;;;;;;;;;726581;191;920753;-77
2022/06/05 10:14:07;;;;;;;17.20;13.77;;;;;;;;;;735203;189;616798;-77
2022/06/05 10:16:33;;;;;;;16.20;12.10;;;;;;;;;;733066;189;627532;-75
2022/06/05 10:19:05;;;;;;;15.83;13.90;;;;;;;;;;725945;190;919321;-74
2022/06/05 10:21:32;;;;;;;16.10;13.60;;;;;;;;;;734583;187;1183341;-73
2022/06/05 10:23:58;;;;;;;26.03;17.00;;;;;;;;;;732036;189;688238;-77
2022/06/05 10:26:27;;;;;;;14.90;12.70;;;;;;;;;;731924;190;919894;-77
2022/06/05 10:28:53;;;;;;;19.70;14.57;;;;;;;;;;731573;190;916956;-75
2022/06/05 10:31:23;;;;;;;17.70;12.73;;;;;;;;;;733293;189;916095;-76
2022/06/05 10:33:53;;;;;;;13.90;12.20;;;;;;;;;;730672;189;918246;-74
2022/06/05 10:36:18;;;;;;;14.70;9.83;;;;;;;;;;736162;190;633186;-77
2022/06/05 10:39:01;;;;;;;12.33;9.30;;;;;;;;;;731552;190;681900;-74
2022/06/05 10:41:42;;;;;;;9.97;8.97;;;;;;;;;;733939;188;648610;-74
2022/06/05 10:44:24;;;;;;;9.27;8.37;;;;;;;;;;725995;190;619011;-78
2022/06/05 10:46:54;;;;;;;18.43;8.50;;;;;;;;;;736956;186;917943;-73
2022/06/05 10:49:20;;;;;;;8.37;7.40;;;;;;;;;;739524;189;616313;-76
2022/06/05 10:51:48;;;;;;;12.70;7.90;;;;;;;;;;729964;191;700270;-75
2022/06/05 10:54:29;;;;;;;8.97;8.07;;;;;;;;;;734496;191;636394;-75
2022/06/05 10:56:58;;;;;;;11.53;7.87;;;;;;;;;;731272;191;625623;-73
2022/06/05 10:59:29;;;;;;;11.67;7.83;;;;;;;;;;735932;191;622848;-76
2022/06/05 11:01:54;;;;;;;8.60;7.20;;;;;;;;;;737267;190;626457;-76
2022/06/05 11:04:37;;;;;;;13.10;9.30;;;;;;;;;;727210;191;619239;-74
2022/06/05 11:07:04;;;;;;;12.33;11.03;;;;;;;;;;731640;190;632590;-74
2022/06/05 11:09:50;;;;;;;9.50;7.70;;;;;;;;;;733384;191;629128;-72
2022/06/05 11:14:56;;;;;;;8.40;7.57;;;;;;;;;;726841;191;625687;-75
2022/06/05 11:17:27;;;;;;;11.17;8.00;;;;;;;;;;736394;191;630063;-73
2022/06/05 11:20:05;;;;;;;8.53;7.73;;;;;;;;;;735010;190;635312;-79
2022/06/05 11:22:31;;;;;;;8.07;7.27;;;;;;;;;;730510;190;629426;-76
2022/06/05 11:24:57;;;;;;;7.43;6.73;;;;;;;;;;724746;190;711763;-78
2022/06/05 11:27:26;;;;;;;16.23;8.40;;;;;;;;;;735097;190;621623;-76
2022/06/05 11:29:52;;;;;;;20.27;11.17;;;;;;;;;;733905;190;813183;-76
2022/06/05 11:32:18;;;;;;;14.68;8.80;;;;;;;;;;728212;189;928709;-74
2022/06/05 11:34:47;;;;;;;9.90;7.83;;;;;;;;;;724543;191;638628;-77
2022/06/05 11:37:20;;;;;;;9.40;8.40;;;;;;;;;;730688;190;626670;-75
2022/06/05 11:39:51;;;;;;;11.77;10.57;;;;;;;;;;728676;189;639366;-73
2022/06/05 11:42:23;;;;;;;9.60;8.23;;;;;;;;;;731962;190;643045;-74
2022/06/05 11:44:49;;;;;;;10.83;6.70;;;;;;;;;;733148;187;659747;-73
2022/06/05 11:47:20;;;;;;;9.97;7.27;;;;;;;;;;727581;190;619061;-74
2022/06/05 11:50:03;;;;;;;8.67;7.47;;;;;;;;;;734286;187;622846;-73
2022/06/05 11:52:29;;;;;;;9.67;7.73;;;;;;;;;;733915;191;638429;-74
2022/06/05 11:54:58;;;;;;;9.30;7.87;;;;;;;;;;726897;190;629134;-72
2022/06/05 11:57:25;;;;;;;10.07;7.97;;;;;;;;;;734735;189;622625;-71
2022/06/05 11:59:52;;;;;;;8.40;7.60;;;;;;;;;;730806;189;631069;-74
2022/06/05 12:02:24;;;;;;;8.10;7.30;;;;;;;;;;735051;189;622691;-72
2022/06/05 12:04:50;;;;;;;7.90;7.07;;;;;;;;;;729992;189;1026424;-76
2022/06/05 12:07:16;;;;;;;7.30;6.60;;;;;;;;;;733180;191;633294;-71
2022/06/05 12:09:43;;;;;;;8.37;7.33;;;;;;;;;;732778;189;917168;-73
2022/06/05 12:12:16;;;;;;;8.07;7.27;;;;;;;;;;728170;190;919057;-76
2022/06/05 12:14:50;;;;;;;7.10;6.40;;;;;;;;;;732975;191;633998;-75
2022/06/05 12:17:16;;;;;;;8.10;6.70;;;;;;;;;;730581;189;675729;-78
2022/06/05 12:19:49;;;;;;;8.90;6.77;;;;;;;;;;730006;189;935716;-76
2022/06/05 12:22:16;;;;;;;8.60;7.80;;;;;;;;;;734425;191;920457;-79
2022/06/05 12:24:43;;;;;;;9.37;8.47;;;;;;;;;;731975;191;916086;-73
2022/06/05 12:27:11;;;;;;;9.50;7.63;;;;;;;;;;727575;189;625138;-75
2022/06/05 12:29:39;;;;;;;7.93;6.43;;;;;;;;;;729965;189;668485;-76
2022/06/05 12:32:06;;;;;;;12.93;9.43;;;;;;;;;;731014;191;706335;-76
2022/06/05 12:34:37;;;;;;;8.73;7.27;;;;;;;;;;728903;188;918483;-73
2022/06/05 12:37:04;;;;;;;8.07;7.27;;;;;;;;;;730914;190;876458;-76
2022/06/05 12:39:31;;;;;;;8.57;6.93;;;;;;;;;;730885;189;894690;-70
2022/06/05 12:42:13;;;;;;;10.83;6.97;;;;;;;;;;732502;190;1072102;-74
2022/06/05 12:44:41;;;;;;;10.00;7.93;;;;;;;;;;734928;190;664939;-74
2022/06/05 12:47:06;;;;;;;12.03;7.67;;;;;;;;;;728503;190;920737;-73
2022/06/05 12:49:38;;;;;;;9.97;7.00;;;;;;;;;;731656;190;923285;-75
2022/06/05 12:52:05;;;;;;;8.10;7.30;;;;;;;;;;737085;190;940765;-69
2022/06/05 12:54:30;;;;;;;9.10;7.30;;;;;;;;;;729592;188;616933;-74
2022/06/05 12:56:56;;;;;;;9.53;7.03;;;;;;;;;;730423;190;645237;-74
2022/06/05 12:59:24;;;;;;;7.77;6.60;;;;;;;;;;732551;189;641412;-74
2022/06/05 13:01:50;;;;;;;8.20;6.90;;;;;;;;;;731714;190;620221;-72
2022/06/05 13:04:16;;;;;;;7.60;6.87;;;;;;;;;;734569;188;921905;-76
2022/06/05 13:06:47;;;;;;;7.40;6.70;;;;;;;;;;728172;189;931660;-77
2022/06/05 13:09:14;;;;;;;7.50;6.80;;;;;;;;;;733059;190;918022;-77
2022/06/05 13:11:40;;;;;;;7.07;6.37;;;;;;;;;;738351;186;662390;-74
2022/06/05 13:14:07;;;;;;;6.57;5.90;;;;;;;;;;730109;191;780145;-78
2022/06/05 13:16:38;;;;;;;10.97;6.77;;;;;;;;;;728872;191;676913;-72
2022/06/05 13:19:10;;;;;;;6.30;5.63;;;;;;;;;;732943;190;904433;-73
2022/06/05 13:21:36;;;;;;;8.67;6.87;;;;;;;;;;732936;187;968062;-75
2022/06/05 13:24:02;;;;;;;6.83;6.23;;;;;;;;;;726912;189;919239;-73
2022/06/05 13:26:50;;;;;;;9.90;7.00;;;;;;;;;;727217;189;919459;-73
2022/06/05 13:29:15;;;;;;;11.27;5.57;;;;;;;;;;731400;191;637079;-72
2022/06/05 13:31:45;;;;;;;7.47;5.20;;;;;;;;;;729797;189;1805077;-74
2022/06/05 13:34:13;;;;;;;7.03;5.20;;;;;;;;;;733085;191;617114;-72
2022/06/05 13:36:38;;;;;;;5.80;5.30;;;;;;;;;;733798;191;643272;-76
2022/06/05 13:39:04;;;;;;;8.10;6.37;;;;;;;;;;732063;189;624550;-70
2022/06/05 13:41:46;;;;;;;6.37;5.77;;;;;;;;;;736733;191;621173;-78
2022/06/05 13:44:15;;;;;;;9.80;6.10;;;;;;;;;;734833;188;625711;-79
2022/06/05 13:46:39;;;;;;;6.70;6.00;;;;;;;;;;733018;188;639779;-74
2022/06/05 13:49:11;;;;;;;8.80;5.73;;;;;;;;;;730384;189;943746;-69
2022/06/05 13:51:37;;;;;;;5.90;5.30;;;;;;;;;;731120;189;736748;-78
2022/06/05 13:54:09;;;;;;;6.03;5.43;;;;;;;;;;731886;190;632456;-77
2022/06/05 13:56:45;;;;;;;6.77;5.73;;;;;;;;;;730542;188;636934;-77
2022/06/05 13:59:11;;;;;;;5.47;4.87;;;;;;;;;;727340;190;913302;-73
2022/06/05 14:01:38;;;;;;;6.27;5.67;;;;;;;;;;726783;189;922696;-72
2022/06/05 14:04:09;;;;;;;5.27;4.77;;;;;;;;;;738702;190;629258;-78
2022/06/05 14:06:37;;;;;;;6.60;5.40;;;;;;;;;;732428;189;790392;-79
2022/06/05 14:09:02;;;;;;;7.83;5.60;;;;;;;;;;731040;190;918632;-77
2022/06/05 14:11:29;;;;;;;5.70;4.87;;;;;;;;;;730655;190;718484;-71
2022/06/05 14:13:54;;;;;;;5.80;5.10;;;;;;;;;;736797;190;623300;-75
2022/06/05 14:16:20;;;;;;;6.57;5.67;;;;;;;;;;731142;189;714511;-74
2022/06/05 14:18:46;;;;;;;6.15;5.55;;;;;;;;;;729799;189;1007572;-74
2022/06/05 14:21:12;;;;;;;8.33;6.27;;;;;;;;;;729006;190;915041;-75
2022/06/05 14:23:38;;;;;;;6.37;5.43;;;;;;;;;;726953;189;916531;-78
2022/06/05 14:26:05;;;;;;;8.10;5.30;;;;;;;;;;723170;189;898549;-79
2022/06/05 14:28:32;;;;;;;8.63;6.00;;;;;;;;;;733475;190;815572;-74